createdAt,value
2022-10-26T00:02:57.947Z,3
2022-10-26T00:07:40.258Z,3
2022-10-26T00:12:22.571Z,3
2022-10-26T00:17:04.782Z,3
2022-10-26T00:21:47.098Z,3
2022-10-26T00:26:29.416Z,3
2022-10-26T00:31:10.720Z,3
2022-10-26T00:35:52.036Z,3
2022-10-26T00:40:33.344Z,3
2022-10-26T00:45:14.557Z,3
2022-10-26T00:49:55.887Z,3
2022-10-26T00:54:37.181Z,3
2022-10-26T00:59:19.491Z,3
2022-10-26T01:04:01.811Z,3
2022-10-26T01:08:44.027Z,3
2022-10-26T01:13:26.328Z,3
2022-10-26T01:18:08.644Z,3
2022-10-26T01:22:50.862Z,3
2022-10-26T01:27:33.169Z,3
2022-10-26T01:32:15.491Z,3
2022-10-26T01:36:57.695Z,3
2022-10-26T01:41:40.084Z,3
2022-10-26T01:46:22.318Z,3
2022-10-26T01:51:04.530Z,3
2022-10-26T01:55:45.845Z,3
2022-10-26T02:00:28.161Z,3
2022-10-26T02:05:10.372Z,3
2022-10-26T02:09:52.682Z,3
2022-10-26T02:14:35.002Z,3
2022-10-26T02:19:17.208Z,3
2022-10-26T02:23:59.545Z,3
2022-10-26T02:28:40.831Z,3
2022-10-26T02:33:22.148Z,3
2022-10-26T02:38:04.456Z,3
2022-10-26T02:42:46.668Z,3
2022-10-26T02:47:28.982Z,3
2022-10-26T02:52:11.301Z,3
2022-10-26T02:56:53.530Z,3
2022-10-26T03:01:35.825Z,3
2022-10-26T03:06:18.133Z,3
2022-10-26T03:11:00.352Z,3
2022-10-26T03:15:42.661Z,3
2022-10-26T03:20:24.982Z,3
2022-10-26T03:25:07.197Z,3
2022-10-26T03:29:49.502Z,7
2022-10-26T03:34:30.895Z,7
2022-10-26T03:39:13.158Z,4
2022-10-26T03:43:55.339Z,12
2022-10-26T03:48:37.653Z,12
2022-10-26T03:53:19.999Z,12
2022-10-26T03:58:02.178Z,12
2022-10-26T04:02:44.492Z,12
2022-10-26T04:07:25.801Z,12
2022-10-26T04:12:07.116Z,12
2022-10-26T04:16:48.440Z,12
2022-10-26T04:21:29.740Z,12
2022-10-26T04:26:11.054Z,12
2022-10-26T04:30:52.260Z,12
2022-10-26T04:35:34.571Z,12
2022-10-26T04:40:16.902Z,12
2022-10-26T04:44:59.094Z,12
2022-10-26T04:49:41.411Z,12
2022-10-26T04:54:23.789Z,12
2022-10-26T04:59:05.935Z,12
2022-10-26T05:03:48.276Z,12
2022-10-26T05:08:30.560Z,12
2022-10-26T05:13:12.778Z,12
2022-10-26T05:17:55.087Z,12
2022-10-26T05:22:37.444Z,12
2022-10-26T05:27:19.690Z,12
2022-10-26T05:32:00.996Z,18
2022-10-26T05:36:43.289Z,24
2022-10-26T05:41:25.615Z,41
2022-10-26T05:46:07.830Z,61
2022-10-26T05:50:50.101Z,91
2022-10-26T05:55:32.385Z,138
2022-10-26T06:00:14.612Z,164
2022-10-26T06:04:55.917Z,222
2022-10-26T06:09:37.243Z,339
2022-10-26T06:14:18.556Z,874
2022-10-26T06:18:59.848Z,1877
2022-10-26T06:23:42.160Z,1947
2022-10-26T06:28:24.369Z,2333
2022-10-26T06:33:06.716Z,2555
2022-10-26T06:37:49.008Z,2966
2022-10-26T06:42:31.211Z,2738
2022-10-26T06:47:13.529Z,3639
2022-10-26T06:51:55.918Z,4752
2022-10-26T06:56:38.054Z,6417
2022-10-26T07:01:20.366Z,7582
2022-10-26T07:06:02.707Z,6290
2022-10-26T07:10:44.932Z,6698
2022-10-26T07:15:27.201Z,6824
2022-10-26T08:30:42.642Z,6120
2022-10-26T08:35:24.978Z,6991
2022-10-26T08:40:06.284Z,9186
2022-10-26T08:44:47.651Z,11597
2022-10-26T08:49:29.811Z,12445
2022-10-26T08:54:12.162Z,12119
2022-10-26T08:58:54.475Z,13149
2022-10-26T09:03:36.672Z,16437
2022-10-26T09:08:18.992Z,15680
2022-10-26T09:13:01.217Z,11676
2022-10-26T09:17:43.587Z,9669
2022-10-26T09:27:08.075Z,10545
2022-10-26T09:31:50.367Z,11378
2022-10-26T09:36:32.580Z,12702
2022-10-26T09:41:14.911Z,11364
2022-10-26T09:45:56.232Z,14869
2022-10-26T09:50:38.531Z,17039
2022-10-26T10:00:03.091Z,6714
2022-10-26T10:04:45.335Z,4931
2022-10-26T10:14:09.904Z,6576
2022-10-26T10:23:34.439Z,12201
2022-10-26T10:28:16.757Z,15812
2022-10-26T10:32:58.969Z,16438
2022-10-26T10:37:41.286Z,16584
2022-10-26T10:47:05.833Z,31382
2022-10-26T10:51:48.163Z,57366
2022-10-26T10:56:30.346Z,17162
2022-10-26T11:01:12.722Z,14465
2022-10-26T11:05:54.975Z,17031
2022-10-26T11:10:37.195Z,16755
2022-10-26T11:15:19.561Z,18514
2022-10-26T11:20:00.831Z,18243
2022-10-26T11:24:43.039Z,11882
2022-10-26T11:29:25.364Z,14126
2022-10-26T11:43:32.205Z,21909
2022-10-26T11:48:14.414Z,15664
2022-10-26T11:52:56.728Z,7227
2022-10-26T11:57:39.053Z,7319
2022-10-26T12:02:21.263Z,7596
2022-10-26T12:07:03.672Z,6631
2022-10-26T12:11:45.888Z,10946
2022-10-26T12:21:10.420Z,15986
2022-10-26T12:30:33.959Z,33104
2022-10-26T12:35:16.266Z,23259
2022-10-26T12:39:58.578Z,20290
2022-10-26T12:44:40.793Z,17671
2022-10-26T12:49:23.108Z,15606
2022-10-26T12:54:05.426Z,14110
2022-10-26T12:58:47.640Z,18155
2022-10-26T13:03:29.956Z,18128
2022-10-26T13:08:12.271Z,13563
2022-10-26T13:17:36.799Z,19189
2022-10-26T13:27:01.326Z,23704
2022-10-26T13:31:42.652Z,14285
2022-10-26T13:36:24.858Z,10445
2022-10-26T13:41:07.169Z,14722
2022-10-26T13:45:49.529Z,13442
2022-10-26T13:55:14.055Z,9056
2022-10-26T13:59:56.362Z,8732
2022-10-26T14:04:38.623Z,12386
2022-10-26T14:09:20.938Z,13743
2022-10-26T14:14:03.173Z,16498
2022-10-26T14:18:45.391Z,35985
2022-10-26T14:23:27.707Z,22461
2022-10-26T14:28:10.031Z,24071
2022-10-26T14:32:51.234Z,14382
2022-10-26T14:37:33.548Z,12940
2022-10-26T14:42:15.890Z,6980
2022-10-26T14:51:40.402Z,7666
2022-10-26T14:56:22.656Z,8227
2022-10-26T15:01:04.937Z,7617
2022-10-26T15:05:47.258Z,6915
2022-10-26T15:10:29.457Z,4246
2022-10-26T15:15:11.771Z,4181
2022-10-26T15:19:54.132Z,3829
2022-10-26T15:24:36.361Z,3462
2022-10-26T15:29:18.653Z,2863
2022-10-26T15:34:00.078Z,2536
2022-10-26T15:38:41.253Z,2083
2022-10-26T15:43:23.452Z,1592
2022-10-26T15:48:05.810Z,1100
2022-10-26T15:52:48.117Z,840
2022-10-26T15:57:30.296Z,564
2022-10-26T16:02:12.611Z,361
2022-10-26T16:06:54.922Z,205
2022-10-26T16:11:37.164Z,92
2022-10-26T16:16:19.496Z,56
2022-10-26T16:25:43.976Z,13
2022-10-26T16:30:26.305Z,12
2022-10-26T16:35:08.613Z,9
2022-10-26T16:39:49.819Z,9
2022-10-26T16:44:32.134Z,4
2022-10-26T16:49:14.464Z,4
2022-10-26T16:53:56.656Z,4
2022-10-26T16:58:38.992Z,4
2022-10-26T17:03:21.289Z,4
2022-10-26T17:08:03.546Z,4
2022-10-26T17:12:45.817Z,4
2022-10-26T17:17:27.124Z,4
2022-10-26T17:22:08.477Z,4
2022-10-26T17:26:50.768Z,4
2022-10-26T17:31:33.115Z,4
2022-10-26T17:36:15.363Z,4
2022-10-26T17:40:57.619Z,4
2022-10-26T17:50:22.245Z,4
2022-10-26T17:55:04.432Z,4
2022-10-26T17:59:46.767Z,4
2022-10-26T18:04:28.991Z,4
2022-10-26T18:09:11.318Z,4
2022-10-26T18:13:53.600Z,4
2022-10-26T18:18:35.853Z,4
2022-10-26T18:23:17.012Z,4
2022-10-26T18:27:59.385Z,9
2022-10-26T18:37:23.897Z,4
2022-10-26T18:46:47.547Z,4
2022-10-26T18:51:28.864Z,4
2022-10-26T18:56:10.152Z,4
2022-10-26T19:00:52.444Z,9
2022-10-26T19:05:34.747Z,9
2022-10-26T19:10:16.944Z,9
2022-10-26T19:14:59.786Z,9
2022-10-26T19:19:41.470Z,9
2022-10-26T19:24:23.785Z,9
2022-10-26T19:29:05.998Z,4
2022-10-26T19:33:48.312Z,9
2022-10-26T19:38:30.641Z,9
2022-10-26T19:47:55.155Z,9
2022-10-26T19:52:37.468Z,4
2022-10-26T19:57:18.680Z,4
2022-10-26T20:02:00.995Z,4
2022-10-26T20:06:43.304Z,4
2022-10-26T20:11:25.524Z,9
2022-10-26T20:16:07.835Z,9
2022-10-26T20:20:50.148Z,9
2022-10-26T20:25:32.358Z,9
2022-10-26T20:30:14.677Z,12
2022-10-26T20:34:55.990Z,9
2022-10-26T20:39:37.297Z,9
2022-10-26T20:44:19.523Z,9
2022-10-26T20:49:01.830Z,9
2022-10-26T20:53:44.139Z,9
2022-10-26T20:58:26.354Z,9
2022-10-26T21:03:08.665Z,9
2022-10-26T21:07:50.978Z,9
2022-10-26T21:12:33.194Z,9
2022-10-26T21:17:15.510Z,9
2022-10-26T21:21:57.828Z,9
2022-10-26T21:26:40.039Z,9
2022-10-26T21:36:04.664Z,9
2022-10-26T21:45:28.187Z,9
2022-10-26T21:54:51.813Z,9
2022-10-26T21:59:33.130Z,9
2022-10-26T22:04:14.442Z,9
2022-10-26T22:08:56.654Z,9
2022-10-26T22:13:38.977Z,9
2022-10-26T22:18:21.290Z,9
2022-10-26T22:23:03.498Z,9
2022-10-26T22:27:45.812Z,9
2022-10-26T22:32:28.125Z,9
2022-10-26T22:37:10.335Z,9
2022-10-26T22:41:52.653Z,9
2022-10-26T22:46:34.960Z,9
2022-10-26T22:51:17.178Z,9
2022-10-26T22:55:58.492Z,9
2022-10-26T23:00:39.798Z,4
2022-10-26T23:05:22.115Z,4
2022-10-26T23:10:04.328Z,4
2022-10-26T23:14:46.641Z,4
2022-10-26T23:19:28.956Z,4
2022-10-26T23:24:11.172Z,4
2022-10-26T23:28:53.489Z,4
2022-10-26T23:33:35.794Z,12
2022-10-26T23:38:18.012Z,12
2022-10-26T23:43:00.330Z,12
2022-10-26T23:47:42.637Z,12
2022-10-26T23:52:24.852Z,12
2022-10-26T23:57:07.168Z,12
